Time;durP1;ratioP1;P1;durP2;ratioP2;P2;SDS_P1;SDS_P2;PMS_P1;PMS_P2;Temp;Humidity;BMP_temperature;BMP_pressure;BME280_temperature;BME280_humidity;BME280_pressure;Samples;Min_cycle;Max_cycle;Signal;HPM_P1;HPM_P2
2023/07/24 00:00:52;;;;;;;15.00;5.45;;;;;;;;;;6279556;22;20008;-96
2023/07/24 00:03:20;;;;;;;13.52;5.47;;;;;;;;;;6254901;22;20015;-95
2023/07/24 00:05:46;;;;;;;9.65;5.53;;;;;;;;;;6254600;22;20011;-95
2023/07/24 00:08:14;;;;;;;10.85;5.78;;;;;;;;;;6279391;22;20452;-95
2023/07/24 00:10:40;;;;;;;16.15;5.28;;;;;;;;;;6254730;22;20011;-95
2023/07/24 00:13:06;;;;;;;13.00;4.97;;;;;;;;;;6279371;22;19996;-94
2023/07/24 00:15:32;;;;;;;11.18;4.70;;;;;;;;;;6279052;22;20010;-94
2023/07/24 00:17:58;;;;;;;14.30;6.03;;;;;;;;;;6279844;22;20485;-94
2023/07/24 00:20:26;;;;;;;13.70;5.40;;;;;;;;;;6255074;22;20133;-94
2023/07/24 00:22:57;;;;;;;11.35;5.32;;;;;;;;;;6279655;22;20082;-94
2023/07/24 00:25:24;;;;;;;14.55;5.50;;;;;;;;;;6254803;22;20015;-94
2023/07/24 00:27:50;;;;;;;9.27;4.88;;;;;;;;;;6279285;22;20008;-95
2023/07/24 00:30:16;;;;;;;17.55;5.53;;;;;;;;;;6254539;22;20012;-94
2023/07/24 00:32:42;;;;;;;9.40;4.53;;;;;;;;;;6280291;22;20441;-94
2023/07/24 00:35:09;;;;;;;10.65;5.43;;;;;;;;;;6256160;22;20033;-94
2023/07/24 00:37:35;;;;;;;15.95;5.18;;;;;;;;;;6255628;22;20012;-94
2023/07/24 00:40:02;;;;;;;15.15;6.10;;;;;;;;;;6280717;22;20096;-94
2023/07/24 00:42:28;;;;;;;12.73;5.15;;;;;;;;;;6281630;22;20003;-94
2023/07/24 00:44:54;;;;;;;15.88;5.47;;;;;;;;;;6280678;22;20333;-94
2023/07/24 00:47:23;;;;;;;13.65;5.15;;;;;;;;;;6253338;22;20574;-95
2023/07/24 00:49:50;;;;;;;10.60;5.60;;;;;;;;;;6279024;22;20011;-94
2023/07/24 00:52:16;;;;;;;11.32;5.13;;;;;;;;;;6254713;22;20018;-94
2023/07/24 00:54:44;;;;;;;16.67;6.50;;;;;;;;;;6253335;22;20007;-94
2023/07/24 00:57:14;;;;;;;19.45;5.90;;;;;;;;;;6278325;22;20035;-94
2023/07/24 00:59:42;;;;;;;11.05;5.32;;;;;;;;;;6253323;22;20015;-94
2023/07/24 01:02:08;;;;;;;11.80;6.00;;;;;;;;;;6278550;22;20460;-95
2023/07/24 01:04:37;;;;;;;18.08;7.85;;;;;;;;;;6252523;22;20018;-95
2023/07/24 01:07:07;;;;;;;11.00;5.03;;;;;;;;;;6278580;22;20438;-95
2023/07/24 01:09:33;;;;;;;14.35;6.15;;;;;;;;;;6277087;22;20007;-94
2023/07/24 01:12:04;;;;;;;12.55;6.40;;;;;;;;;;6252750;22;20036;-95
2023/07/24 01:14:38;;;;;;;18.40;6.63;;;;;;;;;;6276937;22;20082;-94
2023/07/24 01:17:07;;;;;;;13.07;6.50;;;;;;;;;;6276610;22;20437;-94
2023/07/24 01:19:40;;;;;;;21.73;9.98;;;;;;;;;;6278498;22;20004;-95
2023/07/24 01:22:16;;;;;;;14.77;5.50;;;;;;;;;;6280453;22;20432;-94
2023/07/24 01:24:42;;;;;;;;;;;;;;;;;;6279691;22;20007;-94
2023/07/24 01:27:12;;;;;;;12.45;6.65;;;;;;;;;;6279243;22;19910;-94
2023/07/24 01:29:38;;;;;;;17.55;6.20;;;;;;;;;;6279805;22;20353;-94
2023/07/24 01:32:05;;;;;;;14.90;5.85;;;;;;;;;;6281037;22;20027;-95
2023/07/24 01:34:31;;;;;;;15.43;7.18;;;;;;;;;;6280275;22;20039;-95
2023/07/24 01:36:57;;;;;;;17.30;7.50;;;;;;;;;;6254818;22;20016;-94
2023/07/24 01:39:27;;;;;;;14.38;7.03;;;;;;;;;;6281721;22;20008;-94
2023/07/24 01:41:53;;;;;;;15.20;6.78;;;;;;;;;;6281814;22;20037;-94
2023/07/24 01:44:22;;;;;;;15.95;8.02;;;;;;;;;;6256226;22;20015;-95
2023/07/24 01:46:48;;;;;;;18.27;7.53;;;;;;;;;;6281882;22;20008;-95
2023/07/24 01:49:14;;;;;;;18.38;7.97;;;;;;;;;;6256684;22;20400;-95
2023/07/24 01:51:44;;;;;;;16.08;8.48;;;;;;;;;;6255690;22;20012;-95
2023/07/24 01:54:14;;;;;;;20.27;8.35;;;;;;;;;;6280544;22;20037;-95
2023/07/24 01:56:40;;;;;;;17.20;8.20;;;;;;;;;;6281327;22;20004;-95
2023/07/24 01:59:06;;;;;;;14.68;8.50;;;;;;;;;;6281910;22;20004;-95
2023/07/24 02:01:36;;;;;;;23.20;9.48;;;;;;;;;;6282783;22;20559;-95
2023/07/24 02:04:04;;;;;;;16.15;9.65;;;;;;;;;;6282316;22;20008;-95
2023/07/24 02:06:30;;;;;;;20.83;9.35;;;;;;;;;;6256314;22;20008;-95
2023/07/24 02:08:57;;;;;;;18.20;8.80;;;;;;;;;;6281827;22;20008;-95
2023/07/24 02:11:24;;;;;;;19.58;10.40;;;;;;;;;;6281149;22;20008;-94
2023/07/24 02:13:51;;;;;;;19.63;9.35;;;;;;;;;;6282756;22;20008;-95
2023/07/24 02:16:22;;;;;;;20.00;9.70;;;;;;;;;;6282520;22;20004;-95
2023/07/24 02:18:50;;;;;;;18.33;9.43;;;;;;;;;;6256383;22;20022;-95
2023/07/24 02:21:18;;;;;;;19.38;9.43;;;;;;;;;;6281248;22;20007;-96
2023/07/24 02:23:48;;;;;;;20.98;9.90;;;;;;;;;;6257037;22;20012;-95
2023/07/24 02:26:20;;;;;;;16.45;8.93;;;;;;;;;;6257155;22;20015;-95
2023/07/24 02:28:46;;;;;;;18.08;9.95;;;;;;;;;;6282019;22;20231;-94
2023/07/24 02:31:14;;;;;;;21.20;9.70;;;;;;;;;;6254540;22;20016;-95
2023/07/24 02:33:40;;;;;;;18.40;9.90;;;;;;;;;;6281427;22;20018;-94
2023/07/24 02:36:06;;;;;;;18.60;9.95;;;;;;;;;;6281190;22;20069;-94
2023/07/24 02:38:33;;;;;;;17.20;9.55;;;;;;;;;;6280100;22;20003;-95
2023/07/24 02:40:59;;;;;;;15.70;9.45;;;;;;;;;;6281841;22;20069;-94
2023/07/24 02:43:26;;;;;;;21.85;9.68;;;;;;;;;;6255340;22;20015;-94
2023/07/24 02:45:52;;;;;;;16.20;9.77;;;;;;;;;;6278796;22;20027;-96
2023/07/24 02:48:18;;;;;;;18.48;9.68;;;;;;;;;;6281292;22;20007;-95
2023/07/24 02:50:50;;;;;;;16.80;9.93;;;;;;;;;;6255959;22;20014;-95
2023/07/24 02:53:17;;;;;;;19.65;9.88;;;;;;;;;;6254994;22;20061;-94
2023/07/24 02:55:45;;;;;;;17.50;9.70;;;;;;;;;;6279726;22;20000;-95
2023/07/24 02:58:12;;;;;;;18.63;9.95;;;;;;;;;;6280117;22;20456;-95
2023/07/24 03:00:38;;;;;;;21.90;10.10;;;;;;;;;;6280259;22;20020;-95
2023/07/24 03:03:05;;;;;;;16.98;9.65;;;;;;;;;;6255076;22;20008;-94
2023/07/24 03:05:31;;;;;;;17.63;9.82;;;;;;;;;;6281911;22;20115;-94
2023/07/24 03:07:58;;;;;;;18.80;9.55;;;;;;;;;;6282569;22;20003;-94
2023/07/24 03:10:24;;;;;;;23.55;10.00;;;;;;;;;;6255563;22;20004;-95
2023/07/24 03:12:53;;;;;;;15.52;8.30;;;;;;;;;;6255713;22;20529;-95
2023/07/24 03:15:20;;;;;;;18.33;9.40;;;;;;;;;;6281879;22;20034;-94
2023/07/24 03:17:46;;;;;;;18.20;9.02;;;;;;;;;;6281549;22;20487;-95
2023/07/24 03:20:16;;;;;;;20.00;9.23;;;;;;;;;;6281490;22;20004;-94
2023/07/24 03:22:45;;;;;;;12.40;7.57;;;;;;;;;;6280804;22;20007;-94
2023/07/24 03:25:18;;;;;;;17.40;8.63;;;;;;;;;;6280977;22;20448;-95
2023/07/24 03:27:44;;;;;;;19.90;8.23;;;;;;;;;;6281031;22;20015;-95
2023/07/24 03:30:13;;;;;;;15.25;8.07;;;;;;;;;;6254960;22;20015;-95
2023/07/24 03:32:49;;;;;;;15.10;7.30;;;;;;;;;;6258395;22;20020;-96
2023/07/24 03:35:15;;;;;;;21.52;8.57;;;;;;;;;;6277938;22;20008;-95
2023/07/24 03:37:42;;;;;;;14.18;7.03;;;;;;;;;;6280956;22;20016;-95
2023/07/24 03:40:08;;;;;;;20.77;8.02;;;;;;;;;;6282385;22;20433;-94
2023/07/24 03:42:34;;;;;;;15.38;7.45;;;;;;;;;;6255025;22;20035;-95
2023/07/24 03:45:01;;;;;;;17.67;7.82;;;;;;;;;;6280196;22;20007;-95
2023/07/24 03:47:27;;;;;;;17.23;7.15;;;;;;;;;;6281665;22;20454;-96
2023/07/24 03:49:53;;;;;;;16.17;7.57;;;;;;;;;;6258870;22;20007;-95
2023/07/24 03:52:20;;;;;;;13.25;7.00;;;;;;;;;;6281706;22;20015;-96
2023/07/24 03:54:50;;;;;;;13.57;7.15;;;;;;;;;;6258109;22;20450;-95
2023/07/24 03:57:26;;;;;;;;;;;;;;;;;;;;;
2023/07/24 03:59:52;;;;;;;14.45;6.85;;;;;;;;;;6282906;22;20027;-96
2023/07/24 04:02:19;;;;;;;11.35;6.20;;;;;;;;;;6282797;22;20400;-96
2023/07/24 04:04:45;;;;;;;11.45;6.63;;;;;;;;;;6258042;22;20012;-95
2023/07/24 04:07:12;;;;;;;18.38;7.38;;;;;;;;;;6256879;22;20026;-96
2023/07/24 04:09:47;;;;;;;11.30;6.13;;;;;;;;;;6282976;22;20031;-94
2023/07/24 04:12:19;;;;;;;16.20;6.55;;;;;;;;;;6257596;22;20327;-94
2023/07/24 04:14:45;;;;;;;14.27;6.63;;;;;;;;;;6258722;22;20008;-95
2023/07/24 04:17:12;;;;;;;11.73;6.15;;;;;;;;;;6283629;22;20067;-95
2023/07/24 04:19:41;;;;;;;13.93;7.40;;;;;;;;;;6284662;22;20010;-95
2023/07/24 04:22:08;;;;;;;14.40;6.88;;;;;;;;;;6284971;22;20011;-95
2023/07/24 04:24:34;;;;;;;18.60;7.25;;;;;;;;;;6259640;22;20015;-94
2023/07/24 04:27:06;;;;;;;9.60;6.35;;;;;;;;;;6260411;22;20445;-95
2023/07/24 04:29:33;;;;;;;17.83;8.32;;;;;;;;;;6287059;22;20011;-94
2023/07/24 04:32:15;;;;;;;13.95;7.38;;;;;;;;;;6287931;22;20094;-94
2023/07/24 04:34:48;;;;;;;18.42;6.85;;;;;;;;;;6232855;23;20019;-95
2023/07/24 04:37:14;;;;;;;13.82;6.70;;;;;;;;;;6206052;23;20008;-94
2023/07/24 04:39:40;;;;;;;20.13;9.93;;;;;;;;;;6257585;23;20027;-94
2023/07/24 04:42:10;;;;;;;12.77;7.20;;;;;;;;;;6232331;23;20008;-94
2023/07/24 04:44:55;;;;;;;16.23;8.48;;;;;;;;;;6258754;23;20334;-93
2023/07/24 04:47:21;;;;;;;15.00;7.60;;;;;;;;;;6233710;23;20012;-94
2023/07/24 04:49:47;;;;;;;12.82;7.68;;;;;;;;;;6258272;23;20354;-94
2023/07/24 04:52:13;;;;;;;15.77;8.32;;;;;;;;;;6231762;23;20043;-94
2023/07/24 04:54:42;;;;;;;14.50;8.15;;;;;;;;;;6230353;23;20345;-93
2023/07/24 04:57:09;;;;;;;14.23;7.90;;;;;;;;;;6229301;23;20004;-93
2023/07/24 04:59:38;;;;;;;15.82;7.97;;;;;;;;;;6230567;23;20008;-94
2023/07/24 05:02:05;;;;;;;14.20;7.72;;;;;;;;;;6229144;23;20016;-95
2023/07/24 05:04:32;;;;;;;13.57;7.43;;;;;;;;;;6258093;23;20019;-95
2023/07/24 05:06:59;;;;;;;15.15;8.07;;;;;;;;;;6231927;23;20341;-95
2023/07/24 05:09:31;;;;;;;16.48;8.23;;;;;;;;;;6252965;23;20054;-94
2023/07/24 05:12:02;;;;;;;15.38;8.15;;;;;;;;;;6232966;23;20008;-95
2023/07/24 05:14:56;;;;;;;16.45;5.50;;;;;;;;;;6259042;23;20000;-95
2023/07/24 05:17:32;;;;;;;13.27;7.60;;;;;;;;;;6259045;23;20008;-96
2023/07/24 05:20:04;;;;;;;15.30;7.38;;;;;;;;;;6232678;23;20008;-94
2023/07/24 05:22:30;;;;;;;14.30;8.35;;;;;;;;;;6228571;23;20063;-96
2023/07/24 05:25:44;;;;;;;14.10;7.25;;;;;;;;;;6231972;23;20016;-96
2023/07/24 05:28:18;;;;;;;13.50;7.80;;;;;;;;;;6171079;23;20008;-96
2023/07/24 05:31:28;;;;;;;;;;;;;;;;;;;;;
2023/07/24 05:34:09;;;;;;;15.57;8.30;;;;;;;;;;6270418;22;20058;-96
2023/07/24 05:36:41;;;;;;;13.88;8.00;;;;;;;;;;6285804;22;20015;-96
2023/07/24 05:42:26;;;;;;;13.32;8.00;;;;;;;;;;6234220;22;20008;-96
2023/07/24 05:44:53;;;;;;;13.57;7.53;;;;;;;;;;6283524;22;20006;-96
2023/07/24 05:47:22;;;;;;;13.88;7.88;;;;;;;;;;6258196;22;20007;-96
2023/07/24 05:49:59;;;;;;;16.88;8.43;;;;;;;;;;6283929;22;20338;-96
2023/07/24 05:52:29;;;;;;;15.75;7.35;;;;;;;;;;6283520;22;20107;-96
2023/07/24 05:55:08;;;;;;;15.48;8.18;;;;;;;;;;6255469;22;20014;-96
2023/07/24 05:57:38;;;;;;;15.30;8.00;;;;;;;;;;6282654;22;20007;-96
2023/07/24 06:00:17;;;;;;;13.60;7.47;;;;;;;;;;6280955;22;20014;-96
2023/07/24 06:02:48;;;;;;;13.57;6.97;;;;;;;;;;6282740;22;20007;-96
2023/07/24 06:05:20;;;;;;;13.55;8.05;;;;;;;;;;6283775;22;20014;-96
2023/07/24 06:07:52;;;;;;;13.90;8.32;;;;;;;;;;6283733;22;20409;-96
2023/07/24 06:10:20;;;;;;;16.80;8.82;;;;;;;;;;6282652;22;20004;-96
2023/07/24 06:13:15;;;;;;;15.27;7.60;;;;;;;;;;6256722;22;20007;-96
2023/07/24 06:15:45;;;;;;;13.45;7.70;;;;;;;;;;6282071;22;20034;-96
2023/07/24 06:18:15;;;;;;;12.85;7.50;;;;;;;;;;6284874;22;20074;-96
2023/07/24 06:21:07;;;;;;;11.60;6.82;;;;;;;;;;6284094;22;20007;-96
2023/07/24 06:23:35;;;;;;;13.52;7.93;;;;;;;;;;6279303;22;20038;-96
2023/07/24 06:26:01;;;;;;;13.20;7.28;;;;;;;;;;6280674;22;20008;-96
2023/07/24 06:28:33;;;;;;;17.60;8.02;;;;;;;;;;6282633;22;20106;-96
2023/07/24 06:31:01;;;;;;;16.25;7.30;;;;;;;;;;6257253;22;20011;-96
2023/07/24 06:33:30;;;;;;;13.27;6.97;;;;;;;;;;6284748;22;20071;-96
2023/07/24 06:36:02;;;;;;;13.50;7.18;;;;;;;;;;6249268;23;20023;-96
2023/07/24 06:38:30;;;;;;;16.77;7.30;;;;;;;;;;6200911;23;20030;-96
2023/07/24 06:41:05;;;;;;;14.93;7.47;;;;;;;;;;6200205;23;20032;-96
2023/07/24 06:43:34;;;;;;;18.17;7.32;;;;;;;;;;6225831;23;20019;-96
2023/07/24 06:46:16;;;;;;;;;;;;;;;;;;;;;
2023/07/24 06:49:08;;;;;;;10.88;6.47;;;;;;;;;;6252340;23;20051;-96
2023/07/24 06:51:37;;;;;;;12.93;7.22;;;;;;;;;;6203441;23;20453;-96
2023/07/24 06:54:03;;;;;;;18.48;7.57;;;;;;;;;;6200588;23;20004;-96
2023/07/24 06:56:32;;;;;;;20.23;6.97;;;;;;;;;;6224915;23;20030;-96
2023/07/24 06:59:03;;;;;;;19.25;8.57;;;;;;;;;;6250969;23;20004;-96
2023/07/24 07:01:35;;;;;;;13.27;7.53;;;;;;;;;;6275191;22;20091;-96
2023/07/24 07:04:32;;;;;;;15.50;7.38;;;;;;;;;;6283468;22;20037;-96
2023/07/24 07:07:11;;;;;;;15.07;6.47;;;;;;;;;;6283039;22;20061;-96
2023/07/24 07:09:44;;;;;;;16.67;7.70;;;;;;;;;;6258761;22;20027;-96
2023/07/24 07:12:13;;;;;;;13.45;6.75;;;;;;;;;;6247733;22;20039;-96
2023/07/24 07:14:48;;;;;;;16.50;7.65;;;;;;;;;;6256716;22;20008;-96
2023/07/24 07:17:17;;;;;;;19.17;7.43;;;;;;;;;;6282066;22;20065;-96
2023/07/24 07:19:56;;;;;;;17.42;7.60;;;;;;;;;;6283338;22;20070;-96
2023/07/24 07:22:32;;;;;;;12.98;6.97;;;;;;;;;;6276634;22;20007;-96
2023/07/24 07:25:03;;;;;;;19.63;7.95;;;;;;;;;;6257577;22;20011;-96
2023/07/24 07:27:38;;;;;;;14.77;7.28;;;;;;;;;;6258785;22;20057;-96
2023/07/24 07:30:05;;;;;;;18.63;7.75;;;;;;;;;;6284333;22;20014;-96
2023/07/24 07:32:37;;;;;;;17.77;6.72;;;;;;;;;;6282779;22;20008;-96
2023/07/24 07:35:04;;;;;;;18.42;7.13;;;;;;;;;;6283404;22;20011;-96
2023/07/24 07:37:42;;;;;;;14.32;7.55;;;;;;;;;;6256731;22;20011;-96
2023/07/24 07:43:29;;;;;;;17.63;7.72;;;;;;;;;;6280247;22;20045;-96
2023/07/24 07:45:56;;;;;;;;;;;;;;;;;;6283245;22;20003;-96
2023/07/24 07:48:25;;;;;;;15.70;7.35;;;;;;;;;;6282618;22;19919;-96
2023/07/24 07:50:52;;;;;;;15.57;7.20;;;;;;;;;;6283163;22;20011;-96
2023/07/24 07:53:32;;;;;;;12.15;7.47;;;;;;;;;;6282608;22;20456;-96
2023/07/24 07:56:03;;;;;;;14.68;7.40;;;;;;;;;;6260173;22;20018;-96
2023/07/24 07:58:32;;;;;;;20.42;7.47;;;;;;;;;;6258103;22;20004;-96
2023/07/24 08:01:06;;;;;;;17.70;7.07;;;;;;;;;;6282212;22;20507;-96
2023/07/24 08:03:35;;;;;;;16.83;7.10;;;;;;;;;;6282977;22;20012;-96
2023/07/24 08:06:09;;;;;;;15.98;6.72;;;;;;;;;;6258942;22;20011;-96
2023/07/24 08:08:37;;;;;;;16.83;7.25;;;;;;;;;;6283827;22;20053;-96
2023/07/24 08:11:07;;;;;;;12.73;6.75;;;;;;;;;;6260532;22;20007;-96
2023/07/24 08:13:36;;;;;;;17.50;7.68;;;;;;;;;;6282370;22;20504;-96
2023/07/24 08:16:03;;;;;;;17.73;7.18;;;;;;;;;;6259723;22;20008;-96
2023/07/24 08:18:30;;;;;;;14.50;6.97;;;;;;;;;;6259584;22;20027;-96
2023/07/24 08:21:23;;;;;;;13.55;6.70;;;;;;;;;;6284874;22;20008;-96
2023/07/24 08:24:02;;;;;;;19.13;7.65;;;;;;;;;;6259575;22;20012;-96
2023/07/24 08:26:36;;;;;;;19.92;7.15;;;;;;;;;;6281528;22;20492;-96
2023/07/24 08:29:38;;;;;;;18.95;7.72;;;;;;;;;;6259200;22;20039;-96
2023/07/24 08:32:12;;;;;;;14.02;7.25;;;;;;;;;;6279838;22;20004;-96
2023/07/24 08:34:45;;;;;;;15.63;7.45;;;;;;;;;;6260957;22;20016;-96
2023/07/24 08:37:17;;;;;;;16.17;6.55;;;;;;;;;;6282226;22;20406;-96
2023/07/24 08:39:45;;;;;;;13.68;6.63;;;;;;;;;;6283833;22;20004;-96
2023/07/24 08:42:16;;;;;;;13.55;7.30;;;;;;;;;;6283569;22;20012;-96
2023/07/24 08:44:45;;;;;;;16.08;7.50;;;;;;;;;;6281282;22;20327;-96
2023/07/24 08:47:14;;;;;;;19.10;6.97;;;;;;;;;;6282138;22;20500;-96
2023/07/24 08:49:49;;;;;;;15.82;6.72;;;;;;;;;;6256394;22;20382;-96
2023/07/24 08:52:19;;;;;;;14.07;6.35;;;;;;;;;;6283163;22;20011;-96
2023/07/24 08:54:57;;;;;;;16.33;6.75;;;;;;;;;;6280375;22;20014;-96
2023/07/24 08:57:30;;;;;;;14.43;6.43;;;;;;;;;;6282654;22;20004;-96
2023/07/24 09:06:01;;;;;;;;;;;;;;;;;;;;;
2023/07/24 09:08:52;;;;;;;19.02;7.78;;;;;;;;;;6285547;22;20031;-96
2023/07/24 09:11:21;;;;;;;16.80;7.10;;;;;;;;;;6259096;22;20065;-96
2023/07/24 09:13:49;;;;;;;19.58;7.70;;;;;;;;;;6256728;22;20008;-96
2023/07/24 09:16:33;;;;;;;13.57;6.43;;;;;;;;;;6282536;22;20000;-96
2023/07/24 09:19:04;;;;;;;18.45;7.40;;;;;;;;;;6203664;23;20012;-96
2023/07/24 09:24:57;;;;;;;16.73;6.55;;;;;;;;;;6234594;23;20011;-96
2023/07/24 09:27:59;;;;;;;;;;;;;;;;;;;;;
2023/07/24 09:30:29;;;;;;;20.10;7.43;;;;;;;;;;6223227;23;20032;-96
2023/07/24 09:41:55;;;;;;;15.88;8.00;;;;;;;;;;6286547;22;20064;-89
2023/07/24 09:44:31;;;;;;;14.47;7.33;;;;;;;;;;6278147;22;20018;-87
2023/07/24 09:46:58;;;;;;;17.10;7.65;;;;;;;;;;6279910;22;20031;-87
2023/07/24 09:49:24;;;;;;;14.90;6.80;;;;;;;;;;6285345;22;20004;-89
2023/07/24 09:51:57;;;;;;;10.38;6.45;;;;;;;;;;6255739;22;20018;-88
2023/07/24 09:54:26;;;;;;;11.23;4.47;;;;;;;;;;6282010;22;20043;-88
2023/07/24 09:56:54;;;;;;;13.73;6.10;;;;;;;;;;6281630;22;20004;-88
2023/07/24 09:59:23;;;;;;;7.97;3.00;;;;;;;;;;6285090;22;20007;-88
2023/07/24 10:01:52;;;;;;;11.65;5.57;;;;;;;;;;6256803;22;20071;-87
2023/07/24 10:04:19;;;;;;;14.85;5.80;;;;;;;;;;6284928;22;20011;-88
2023/07/24 10:06:46;;;;;;;12.10;5.60;;;;;;;;;;6259346;22;20403;-88
2023/07/24 10:09:38;;;;;;;8.45;4.13;;;;;;;;;;6282937;22;20007;-90
2023/07/24 10:12:04;;;;;;;10.75;5.18;;;;;;;;;;6280942;22;20409;-88
2023/07/24 10:14:31;;;;;;;15.43;5.18;;;;;;;;;;6278945;22;20004;-89
2023/07/24 10:17:07;;;;;;;9.60;5.25;;;;;;;;;;6255526;22;20014;-89
2023/07/24 10:19:42;;;;;;;;;;;;;;;;;;6285982;22;20027;-89
2023/07/24 10:22:23;;;;;;;14.43;6.57;;;;;;;;;;6282263;22;19974;-89
2023/07/24 10:24:52;;;;;;;18.05;8.25;;;;;;;;;;6281135;22;20046;-89
2023/07/24 10:27:23;;;;;;;15.55;6.63;;;;;;;;;;6281436;22;20179;-89
2023/07/24 10:30:02;;;;;;;16.63;6.95;;;;;;;;;;6279527;22;20050;-89
2023/07/24 10:32:28;;;;;;;13.10;6.57;;;;;;;;;;6280190;22;20011;-89
2023/07/24 10:35:10;;;;;;;14.27;7.95;;;;;;;;;;6279770;22;20376;-89
2023/07/24 10:37:40;;;;;;;15.07;8.10;;;;;;;;;;6280617;22;20073;-89
2023/07/24 10:40:30;;;;;;;12.95;6.60;;;;;;;;;;6258873;22;20021;-88
2023/07/24 10:43:09;;;;;;;12.27;6.97;;;;;;;;;;6258470;22;20039;-89
2023/07/24 10:45:55;;;;;;;12.13;6.53;;;;;;;;;;6279624;22;20012;-88
2023/07/24 10:48:23;;;;;;;13.55;6.25;;;;;;;;;;6280167;22;20094;-88
2023/07/24 10:50:58;;;;;;;11.63;6.18;;;;;;;;;;6281697;22;20007;-89
2023/07/24 10:53:28;;;;;;;12.85;6.80;;;;;;;;;;6282546;22;20016;-88
2023/07/24 10:55:57;;;;;;;9.25;5.53;;;;;;;;;;6280627;22;20031;-88
2023/07/24 10:58:25;;;;;;;9.40;4.90;;;;;;;;;;6254720;22;20014;-89
2023/07/24 11:00:56;;;;;;;8.32;4.38;;;;;;;;;;6280524;22;20004;-89
2023/07/24 11:03:28;;;;;;;8.07;4.30;;;;;;;;;;6255584;22;20012;-89
2023/07/24 11:06:02;;;;;;;7.65;3.90;;;;;;;;;;6282264;22;20075;-88
2023/07/24 11:08:31;;;;;;;9.38;4.10;;;;;;;;;;6283097;22;20003;-89
2023/07/24 11:10:58;;;;;;;10.95;4.28;;;;;;;;;;6281664;22;20038;-89
2023/07/24 11:13:26;;;;;;;7.40;4.50;;;;;;;;;;6283041;22;20012;-89
2023/07/24 11:16:07;;;;;;;7.53;4.53;;;;;;;;;;6256273;22;20007;-89
2023/07/24 11:18:47;;;;;;;8.13;4.57;;;;;;;;;;6281410;22;20004;-89
2023/07/24 11:21:22;;;;;;;9.07;3.92;;;;;;;;;;6281167;22;20018;-89
2023/07/24 11:23:53;;;;;;;7.30;3.97;;;;;;;;;;6279165;22;20012;-89
2023/07/24 11:26:41;;;;;;;8.80;3.35;;;;;;;;;;6278219;22;20011;-89
2023/07/24 11:29:43;;;;;;;;;;;;;;;;;;;;;
2023/07/24 11:31:58;;;;;;;10.00;5.22;;;;;;;;;;6275855;22;20015;-90
2023/07/24 11:34:25;;;;;;;12.95;6.18;;;;;;;;;;6252212;22;20004;-90
2023/07/24 11:36:54;;;;;;;16.83;5.60;;;;;;;;;;6278346;22;20008;-90
2023/07/24 11:39:24;;;;;;;13.82;6.30;;;;;;;;;;6279803;22;19999;-90
2023/07/24 11:41:53;;;;;;;13.65;6.38;;;;;;;;;;6254825;22;20023;-89
2023/07/24 11:44:27;;;;;;;17.85;6.50;;;;;;;;;;6255443;22;20047;-90
2023/07/24 11:47:00;;;;;;;14.82;7.22;;;;;;;;;;6279761;22;20011;-90
2023/07/24 11:49:33;;;;;;;15.30;7.20;;;;;;;;;;6279209;22;20130;-89
2023/07/24 11:52:01;;;;;;;14.13;7.43;;;;;;;;;;6254515;22;20086;-89
2023/07/24 11:54:27;;;;;;;12.75;6.72;;;;;;;;;;6255379;22;20094;-90
2023/07/24 11:56:56;;;;;;;10.77;6.35;;;;;;;;;;6253503;22;20015;-90
2023/07/24 11:59:22;;;;;;;12.73;5.28;;;;;;;;;;6254017;22;20097;-90
2023/07/24 12:04:48;;;;;;;12.60;5.90;;;;;;;;;;6256945;22;20480;-90
2023/07/24 12:07:15;;;;;;;8.85;5.03;;;;;;;;;;6254850;22;20404;-89
2023/07/24 12:09:42;;;;;;;9.65;5.43;;;;;;;;;;6254287;22;20015;-89
2023/07/24 12:12:16;;;;;;;7.88;5.25;;;;;;;;;;6253053;22;20015;-89
2023/07/24 12:14:42;;;;;;;12.02;5.75;;;;;;;;;;6253709;22;20031;-90
2023/07/24 12:17:12;;;;;;;13.00;5.28;;;;;;;;;;6251573;22;20015;-89
2023/07/24 12:19:48;;;;;;;13.32;4.95;;;;;;;;;;6277344;22;20006;-89
2023/07/24 12:22:14;;;;;;;14.18;5.68;;;;;;;;;;6276426;22;20042;-89
2023/07/24 12:24:40;;;;;;;9.88;4.93;;;;;;;;;;6276225;22;20007;-89
2023/07/24 12:27:09;;;;;;;11.05;5.18;;;;;;;;;;6275345;22;20160;-89
2023/07/24 12:29:35;;;;;;;12.52;5.97;;;;;;;;;;6277507;22;20008;-89
2023/07/24 12:32:01;;;;;;;15.35;7.82;;;;;;;;;;6253183;22;20034;-89
2023/07/24 12:34:28;;;;;;;19.52;6.68;;;;;;;;;;6254565;22;20004;-89
2023/07/24 12:36:54;;;;;;;25.83;8.15;;;;;;;;;;6252478;22;20015;-89
2023/07/24 12:39:21;;;;;;;22.02;7.95;;;;;;;;;;6257297;22;20008;-90
2023/07/24 12:41:47;;;;;;;23.88;7.97;;;;;;;;;;6254805;22;20015;-90
2023/07/24 12:44:13;;;;;;;14.27;7.47;;;;;;;;;;6279646;22;20508;-90
2023/07/24 12:46:40;;;;;;;17.25;7.18;;;;;;;;;;6255377;22;20102;-90
2023/07/24 12:49:06;;;;;;;17.42;8.13;;;;;;;;;;6254276;22;20016;-90
2023/07/24 12:51:36;;;;;;;15.18;7.40;;;;;;;;;;6255685;22;20535;-90
2023/07/24 12:54:04;;;;;;;16.10;7.57;;;;;;;;;;6280740;22;20082;-89
2023/07/24 12:56:38;;;;;;;14.15;7.38;;;;;;;;;;6257229;22;20472;-89
2023/07/24 12:59:06;;;;;;;14.90;7.28;;;;;;;;;;6284092;22;20043;-90
2023/07/24 13:01:35;;;;;;;21.40;8.73;;;;;;;;;;6283483;22;20035;-90
2023/07/24 13:04:04;;;;;;;15.40;8.30;;;;;;;;;;6284281;22;20007;-90
2023/07/24 13:06:34;;;;;;;15.27;8.68;;;;;;;;;;6284242;22;20019;-90
2023/07/24 13:09:00;;;;;;;11.18;7.55;;;;;;;;;;6282068;22;20011;-90
2023/07/24 13:11:28;;;;;;;17.67;7.97;;;;;;;;;;6256109;22;20504;-90
2023/07/24 13:13:54;;;;;;;18.65;8.57;;;;;;;;;;6281068;22;20083;-89
2023/07/24 13:16:25;;;;;;;17.70;8.38;;;;;;;;;;6256621;22;20060;-89
2023/07/24 13:18:51;;;;;;;14.63;8.50;;;;;;;;;;6257041;22;20112;-89
2023/07/24 13:21:34;;;;;;;11.65;6.47;;;;;;;;;;6283719;22;20018;-89
2023/07/24 13:24:01;;;;;;;15.90;7.30;;;;;;;;;;6259081;22;20008;-88
2023/07/24 13:26:29;;;;;;;11.00;6.53;;;;;;;;;;6282162;22;20007;-88
2023/07/24 13:28:55;;;;;;;11.05;6.00;;;;;;;;;;6282131;22;20012;-88
2023/07/24 13:31:28;;;;;;;12.05;5.88;;;;;;;;;;6256685;22;20004;-89
2023/07/24 13:33:57;;;;;;;13.02;6.03;;;;;;;;;;6283816;22;20054;-91
2023/07/24 13:36:29;;;;;;;13.70;6.22;;;;;;;;;;6283049;22;20004;-88
2023/07/24 13:38:58;;;;;;;12.32;5.15;;;;;;;;;;6258317;22;20015;-89
2023/07/24 13:41:24;;;;;;;8.70;4.47;;;;;;;;;;6258911;22;20016;-88
2023/07/24 13:43:51;;;;;;;4.82;2.47;;;;;;;;;;6281611;22;20007;-88
2023/07/24 13:46:27;;;;;;;4.28;3.45;;;;;;;;;;6257628;22;20058;-89
2023/07/24 13:48:53;;;;;;;;;;;;;;;;;;6284558;22;20735;-89
2023/07/24 13:51:20;;;;;;;9.88;3.03;;;;;;;;;;6281505;22;19907;-88
2023/07/24 13:53:51;;;;;;;5.95;2.50;;;;;;;;;;6257667;22;20008;-89
2023/07/24 13:56:22;;;;;;;8.13;2.50;;;;;;;;;;6282169;22;20495;-89
2023/07/24 13:58:53;;;;;;;5.15;2.10;;;;;;;;;;6258832;22;20007;-89
2023/07/24 14:01:19;;;;;;;4.70;2.38;;;;;;;;;;6257106;22;20015;-88
2023/07/24 14:03:51;;;;;;;6.95;2.47;;;;;;;;;;6284688;22;20049;-89
2023/07/24 14:06:17;;;;;;;7.40;2.47;;;;;;;;;;6284532;22;20027;-88
2023/07/24 14:08:46;;;;;;;7.20;1.75;;;;;;;;;;6258912;22;20460;-89
2023/07/24 14:11:13;;;;;;;5.07;2.38;;;;;;;;;;6283857;22;20438;-88
2023/07/24 14:13:39;;;;;;;8.07;2.50;;;;;;;;;;6265242;22;20517;-88
2023/07/24 14:16:07;;;;;;;5.55;3.40;;;;;;;;;;6254373;22;20008;-89
2023/07/24 14:18:33;;;;;;;8.68;3.80;;;;;;;;;;6256157;22;20012;-88
2023/07/24 14:21:11;;;;;;;7.38;2.95;;;;;;;;;;6255165;22;20019;-89
2023/07/24 14:23:41;;;;;;;8.88;2.60;;;;;;;;;;6258030;22;20007;-88
2023/07/24 14:26:07;;;;;;;8.02;3.20;;;;;;;;;;6283157;22;20004;-89
2023/07/24 14:28:36;;;;;;;11.57;3.25;;;;;;;;;;6257806;22;20008;-89
2023/07/24 14:31:04;;;;;;;8.40;2.97;;;;;;;;;;6256085;22;20038;-89
2023/07/24 14:33:51;;;;;;;7.15;2.33;;;;;;;;;;6283232;22;20004;-89
2023/07/24 14:36:16;;;;;;;7.25;3.15;;;;;;;;;;6283003;22;20015;-89
2023/07/24 14:38:50;;;;;;;6.05;2.63;;;;;;;;;;6259396;22;20032;-88
2023/07/24 14:41:16;;;;;;;14.52;2.78;;;;;;;;;;6287026;22;20019;-89
2023/07/24 14:43:46;;;;;;;9.30;2.17;;;;;;;;;;6285686;22;20051;-88
2023/07/24 14:46:19;;;;;;;12.23;2.60;;;;;;;;;;6284204;22;20402;-89
2023/07/24 14:48:54;;;;;;;11.10;2.65;;;;;;;;;;6284601;22;20007;-89
2023/07/24 14:51:27;;;;;;;7.18;2.30;;;;;;;;;;6285637;22;20008;-89
2023/07/24 14:53:57;;;;;;;7.88;2.50;;;;;;;;;;6285028;22;20002;-89
2023/07/24 14:56:27;;;;;;;9.43;2.70;;;;;;;;;;6260791;22;20019;-89
2023/07/24 14:58:57;;;;;;;11.57;2.13;;;;;;;;;;6261406;22;20004;-88
2023/07/24 15:01:27;;;;;;;6.40;2.03;;;;;;;;;;6251533;22;20070;-89
2023/07/24 15:03:54;;;;;;;6.28;1.77;;;;;;;;;;6284396;22;20015;-88
2023/07/24 15:06:20;;;;;;;9.50;1.92;;;;;;;;;;6286543;22;20622;-89
2023/07/24 15:09:03;;;;;;;6.75;1.92;;;;;;;;;;6258676;22;20012;-89
2023/07/24 15:11:29;;;;;;;6.72;1.70;;;;;;;;;;6263750;22;20345;-89
2023/07/24 15:16:47;;;;;;;7.03;1.52;;;;;;;;;;6276647;22;20015;-89
2023/07/24 15:22:03;;;;;;;5.55;1.58;;;;;;;;;;6285964;22;20081;-89
2023/07/24 15:27:25;;;;;;;4.43;1.60;;;;;;;;;;6287246;22;20089;-89
2023/07/24 15:30:13;;;;;;;7.80;1.83;;;;;;;;;;6284670;22;20012;-89
2023/07/24 15:32:49;;;;;;;3.08;1.52;;;;;;;;;;6280494;22;20014;-89
2023/07/24 15:35:30;;;;;;;;;;;;;;;;;;6258777;22;20015;-89
2023/07/24 15:38:12;;;;;;;;;;;;;;;;;;;;;